Time;durP1;ratioP1;P1;durP2;ratioP2;P2;SDS_P1;SDS_P2;PMS_P1;PMS_P2;Temp;Humidity;BMP_temperature;BMP_pressure;BME280_temperature;BME280_humidity;BME280_pressure;Samples;Min_cycle;Max_cycle;Signal;HPM_P1;HPM_P2
2022/11/07 00:02:04;;;;;;;1.23;1.15;;;;;;;11.49;79.89;99539.25;4349043;33;34709;-75
2022/11/07 00:04:33;;;;;;;2.30;1.95;;;;;;;10.72;82.04;99542.56;4348944;33;35143;-76
2022/11/07 00:07:02;;;;;;;2.60;2.40;;;;;;;10.53;83.89;99536.63;4348948;33;34578;-76
2022/11/07 00:09:30;;;;;;;2.50;2.30;;;;;;;10.52;84.27;99536.69;4335728;33;34348;-76
2022/11/07 00:11:58;;;;;;;2.53;1.75;;;;;;;10.70;83.60;99541.72;4335801;33;34055;-76
2022/11/07 00:14:26;;;;;;;3.28;2.95;;;;;;;11.02;81.47;99537.13;4349209;33;35511;-75
2022/11/07 00:16:54;;;;;;;1.75;1.65;;;;;;;11.41;79.36;99535.84;4335602;33;34398;-77
2022/11/07 00:19:22;;;;;;;3.85;1.67;;;;;;;10.90;81.74;99544.16;4349004;33;34513;-77
2022/11/07 00:21:50;;;;;;;1.37;1.27;;;;;;;11.66;78.83;99540.78;4348845;33;34085;-76
2022/11/07 00:24:18;;;;;;;2.05;1.95;;;;;;;11.90;76.63;99553.53;4348837;33;35020;-75
2022/11/07 00:26:47;;;;;;;1.83;1.73;;;;;;;11.48;78.10;99560.09;4335652;33;35372;-77
2022/11/07 00:29:18;;;;;;;1.83;1.60;;;;;;;11.47;78.95;99556.66;4348975;33;33411;-75
2022/11/07 00:31:47;;;;;;;0.98;0.98;;;;;;;11.44;78.15;99563.62;4349130;33;34712;-76
2022/11/07 00:34:15;;;;;;;1.23;1.23;;;;;;;11.09;80.70;99564.84;4348757;33;36073;-76
2022/11/07 00:36:43;;;;;;;2.58;2.03;;;;;;;11.27;80.22;99559.44;4348746;33;34638;-75
2022/11/07 00:39:11;;;;;;;1.40;1.35;;;;;;;11.09;81.24;99562.25;4348792;33;34702;-76
2022/11/07 00:41:39;;;;;;;1.08;0.98;;;;;;;11.57;79.78;99562.59;4348280;33;33968;-76
2022/11/07 00:44:07;;;;;;;1.50;1.33;;;;;;;11.65;78.85;99559.94;4349012;33;35886;-76
2022/11/07 00:46:35;;;;;;;0.95;0.93;;;;;;;11.48;80.02;99560.09;4348750;33;35291;-76
2022/11/07 00:49:03;;;;;;;1.40;1.12;;;;;;;11.60;80.13;99557.38;4348456;33;33653;-76
2022/11/07 00:51:31;;;;;;;1.55;1.45;;;;;;;11.62;79.79;99552.13;4347094;33;33932;-76
2022/11/07 00:54:03;;;;;;;3.12;1.95;;;;;;;11.44;81.03;99550.59;4347910;33;34967;-76
2022/11/07 00:56:31;;;;;;;1.48;1.37;;;;;;;11.71;80.33;99547.66;4348770;33;34574;-76
2022/11/07 00:58:59;;;;;;;1.12;1.00;;;;;;;11.72;79.17;99548.53;4348675;33;34592;-76
2022/11/07 01:01:30;;;;;;;0.55;0.55;;;;;;;11.00;83.36;99558.84;4348651;33;33988;-77
2022/11/07 01:06:46;;;;;;;;;;;;;;;11.34;82.66;99555.88;4348905;33;34402;-76
2022/11/07 01:09:16;;;;;;;0.60;0.60;;;;;;;10.90;85.90;99556.31;4348685;33;33666;-77
2022/11/07 01:11:45;;;;;;;2.75;2.55;;;;;;;11.13;84.42;99569.16;4348765;33;33956;-76
2022/11/07 01:14:16;;;;;;;4.22;2.92;;;;;;;11.10;84.62;99563.94;4348618;33;35166;-76
2022/11/07 01:16:44;;;;;;;3.03;1.60;;;;;;;11.57;82.78;99563.47;4335315;33;34466;-76
2022/11/07 01:19:12;;;;;;;4.50;2.12;;;;;;;11.56;82.30;99560.91;4348686;33;34280;-76
2022/11/07 01:21:41;;;;;;;1.85;1.48;;;;;;;11.64;82.39;99563.41;4348423;33;33952;-76
2022/11/07 01:24:11;;;;;;;1.23;1.20;;;;;;;12.17;80.37;99554.06;4335362;33;34888;-76
2022/11/07 01:26:41;;;;;;;2.28;2.08;;;;;;;11.81;81.35;99551.03;4348499;33;33699;-75
2022/11/07 01:29:09;;;;;;;1.30;1.27;;;;;;;11.70;82.02;99556.38;4348804;33;34499;-77
2022/11/07 01:31:37;;;;;;;1.65;1.52;;;;;;;11.64;82.38;99555.59;4348657;33;34206;-75
2022/11/07 01:34:05;;;;;;;2.10;1.50;;;;;;;11.41;83.74;99551.47;4348384;33;35125;-75
2022/11/07 01:36:34;;;;;;;2.50;1.75;;;;;;;11.48;83.75;99557.50;4348411;33;34453;-75
2022/11/07 01:39:02;;;;;;;1.40;1.30;;;;;;;11.52;83.80;99559.19;4348402;33;34501;-75
2022/11/07 01:41:33;;;;;;;1.50;1.40;;;;;;;11.67;83.12;99558.16;4348212;33;33921;-77
2022/11/07 01:44:06;;;;;;;0.90;0.90;;;;;;;11.64;83.74;99563.41;4348471;33;35877;-77
2022/11/07 01:46:42;;;;;;;1.95;1.85;;;;;;;11.94;81.64;99563.06;4348342;33;35163;-75
2022/11/07 01:49:10;;;;;;;3.37;3.12;;;;;;;12.19;81.32;99573.19;4335093;33;33659;-76
2022/11/07 01:51:49;;;;;;;4.95;4.25;;;;;;;12.39;79.86;99566.81;4348401;33;33604;-75
2022/11/07 01:54:25;;;;;;;1.27;1.17;;;;;;;12.08;81.36;99564.63;4334816;33;34739;-76
2022/11/07 01:56:55;;;;;;;2.00;1.90;;;;;;;12.44;79.47;99573.72;4335047;33;34560;-77
2022/11/07 01:59:26;;;;;;;0.65;0.65;;;;;;;11.95;81.71;99561.34;4335006;33;33525;-77
2022/11/07 02:01:54;;;;;;;1.20;1.17;;;;;;;11.75;82.94;99567.63;4348074;33;33273;-77
2022/11/07 02:04:25;;;;;;;1.65;1.55;;;;;;;12.65;79.21;99564.69;4348120;33;34903;-77
2022/11/07 02:07:04;;;;;;;1.55;1.45;;;;;;;12.06;81.40;99567.25;4334938;33;35228;-78
2022/11/07 02:09:32;;;;;;;1.65;1.55;;;;;;;11.55;84.19;99573.06;4347981;33;33658;-76
2022/11/07 02:12:00;;;;;;;1.17;1.08;;;;;;;12.01;82.09;99574.28;4334661;33;34696;-76
2022/11/07 02:14:29;;;;;;;1.00;1.00;;;;;;;12.12;81.90;99568.91;4334693;33;35061;-76
2022/11/07 02:16:57;;;;;;;3.08;2.22;;;;;;;12.65;79.71;99562.09;4347950;33;34570;-76
2022/11/07 02:19:37;;;;;;;4.45;3.25;;;;;;;12.58;79.60;99563.03;4347936;33;34335;-75
2022/11/07 02:22:27;;;;;;;9.43;2.75;;;;;;;12.38;80.08;99565.09;4334659;33;34795;-76
2022/11/07 02:24:58;;;;;;;4.85;3.87;;;;;;;12.27;80.74;99570.47;4347897;33;35094;-76
2022/11/07 02:27:28;;;;;;;3.28;2.65;;;;;;;12.10;81.62;99565.47;4334595;33;34503;-75
2022/11/07 02:29:59;;;;;;;3.47;2.70;;;;;;;12.79;79.11;99561.84;4347788;33;33572;-76
2022/11/07 02:32:28;;;;;;;3.12;2.60;;;;;;;12.34;80.77;99561.66;4334704;33;34781;-74
2022/11/07 02:35:00;;;;;;;2.12;1.85;;;;;;;12.59;79.40;99556.09;4347620;33;36009;-76
2022/11/07 02:37:32;;;;;;;2.22;2.12;;;;;;;12.28;81.00;99567.84;4334400;33;34638;-75
2022/11/07 02:40:04;;;;;;;0.50;0.50;;;;;;;12.10;82.16;99562.88;4347652;33;33777;-75
2022/11/07 02:42:42;;;;;;;1.92;1.80;;;;;;;12.14;81.92;99557.59;4333911;33;33921;-75
2022/11/07 02:45:23;;;;;;;3.53;3.22;;;;;;;11.98;83.10;99552.59;4335243;33;35213;-75
2022/11/07 02:47:51;;;;;;;2.42;2.33;;;;;;;12.11;82.64;99556.78;4347805;33;34882;-76
2022/11/07 02:50:19;;;;;;;1.15;1.10;;;;;;;12.45;81.33;99551.91;4347598;33;33488;-76
2022/11/07 02:52:47;;;;;;;3.33;3.00;;;;;;;12.45;80.88;99556.28;4347467;33;33904;-75
2022/11/07 02:55:16;;;;;;;1.52;1.42;;;;;;;12.23;82.06;99555.72;4347301;33;35941;-76
2022/11/07 02:57:44;;;;;;;4.68;2.28;;;;;;;12.25;82.20;99557.44;4347381;33;34643;-75
2022/11/07 03:00:13;;;;;;;1.98;1.87;;;;;;;12.94;79.27;99552.03;4347357;33;33760;-76
2022/11/07 03:02:48;;;;;;;1.55;1.45;;;;;;;13.70;74.77;99554.16;4333963;33;33964;-76
2022/11/07 03:05:18;;;;;;;3.47;2.92;;;;;;;13.69;74.35;99558.50;4347293;33;35084;-76
2022/11/07 03:07:48;;;;;;;2.78;2.58;;;;;;;12.64;79.29;99549.88;4347285;33;33699;-76
2022/11/07 03:10:17;;;;;;;2.17;2.08;;;;;;;12.24;81.56;99550.47;4347084;33;34053;-74
2022/11/07 03:12:45;;;;;;;8.15;3.60;;;;;;;12.20;81.84;99551.41;4347350;33;34556;-76
2022/11/07 03:15:14;;;;;;;1.23;1.23;;;;;;;11.67;85.45;99553.81;4348700;33;35997;-75
2022/11/07 03:17:42;;;;;;;1.37;1.27;;;;;;;11.51;86.99;99558.31;4336103;33;35270;-75
2022/11/07 03:20:10;;;;;;;3.90;3.55;;;;;;;11.98;84.83;99555.19;4349477;33;33733;-75
2022/11/07 03:22:38;;;;;;;7.20;3.00;;;;;;;12.12;84.07;99550.66;4349289;33;34116;-76
2022/11/07 03:25:07;;;;;;;2.17;1.98;;;;;;;11.84;85.22;99551.00;4349298;33;35007;-75
2022/11/07 03:27:35;;;;;;;6.22;3.03;;;;;;;12.25;83.52;99556.59;4349244;33;34550;-75
2022/11/07 03:30:03;;;;;;;5.25;3.53;;;;;;;12.54;82.33;99555.28;4349334;33;33802;-76
2022/11/07 03:32:33;;;;;;;3.72;1.85;;;;;;;12.33;83.10;99559.94;4349314;33;34004;-76
2022/11/07 03:35:01;;;;;;;1.42;1.20;;;;;;;12.73;81.67;99558.47;4349110;33;35626;-75
2022/11/07 03:37:29;;;;;;;0.60;0.60;;;;;;;13.19;78.14;99557.69;4349338;33;35175;-76
2022/11/07 03:39:57;;;;;;;3.28;2.97;;;;;;;13.19;78.75;99557.69;4349205;33;33550;-75
2022/11/07 03:42:25;;;;;;;1.80;1.70;;;;;;;12.44;81.52;99558.03;4349298;33;33746;-76
2022/11/07 03:44:53;;;;;;;0.95;0.95;;;;;;;12.86;80.23;99557.38;4349122;33;35034;-75
2022/11/07 03:47:21;;;;;;;2.40;2.20;;;;;;;12.30;82.36;99555.62;4349193;33;34373;-74
2022/11/07 03:49:49;;;;;;;1.75;1.65;;;;;;;12.28;82.98;99556.53;4349187;33;33655;-76
2022/11/07 03:52:18;;;;;;;2.28;1.77;;;;;;;12.39;82.66;99558.97;4349107;33;33981;-75
2022/11/07 03:54:45;;;;;;;3.53;1.70;;;;;;;12.38;82.68;99559.87;4348896;33;34903;-76
2022/11/07 03:57:13;;;;;;;2.42;2.22;;;;;;;12.26;83.14;99564.38;4349289;33;34536;-74
2022/11/07 03:59:41;;;;;;;4.87;4.28;;;;;;;12.05;84.42;99576.00;4349099;33;33386;-73
2022/11/07 04:02:09;;;;;;;3.62;2.10;;;;;;;12.52;82.83;99581.44;4348903;33;34764;-75
2022/11/07 04:04:38;;;;;;;3.87;3.55;;;;;;;12.39;82.72;99579.88;4349109;33;35111;-75
2022/11/07 04:07:06;;;;;;;1.58;1.48;;;;;;;12.06;84.39;99582.91;4349042;33;35431;-75
2022/11/07 04:09:34;;;;;;;1.23;1.12;;;;;;;12.33;83.61;99589.53;4348926;33;33654;-75
2022/11/07 04:17:35;;;;;;;;;;;;;;;12.76;81.46;99584.53;4349307;33;35407;-75
2022/11/07 04:20:04;;;;;;;0.98;0.95;;;;;;;12.19;84.15;99582.75;4349052;33;34474;-75
2022/11/07 04:22:32;;;;;;;3.72;3.42;;;;;;;12.13;84.43;99581.09;4348875;33;33933;-75
2022/11/07 04:25:00;;;;;;;1.50;1.37;;;;;;;12.22;83.85;99578.38;4348579;33;35865;-75
2022/11/07 04:27:45;;;;;;;1.33;1.27;;;;;;;12.25;83.81;99577.47;4348324;33;34621;-76
2022/11/07 04:30:18;;;;;;;1.33;1.33;;;;;;;12.47;82.37;99584.09;4348956;33;33529;-75
2022/11/07 04:32:51;;;;;;;2.95;2.03;;;;;;;12.55;82.02;99576.16;4348918;33;34024;-76
2022/11/07 04:35:22;;;;;;;1.75;1.33;;;;;;;12.23;83.42;99582.72;4335693;33;35136;-76
2022/11/07 04:37:50;;;;;;;2.08;1.98;;;;;;;12.09;84.66;99582.87;4335578;33;34500;-76
2022/11/07 04:40:19;;;;;;;1.85;1.75;;;;;;;12.50;82.45;99572.75;4348844;33;34369;-76
2022/11/07 04:42:47;;;;;;;2.75;2.55;;;;;;;11.92;84.31;99567.44;4335408;33;34640;-75
2022/11/07 04:45:16;;;;;;;1.00;1.00;;;;;;;12.18;83.73;99563.62;4348355;33;35018;-75
2022/11/07 04:47:45;;;;;;;1.25;1.15;;;;;;;12.18;83.47;99561.03;4348751;33;34502;-75
2022/11/07 04:50:15;;;;;;;1.45;1.37;;;;;;;12.25;82.99;99567.88;4348695;33;34353;-75
2022/11/07 04:52:44;;;;;;;1.17;1.08;;;;;;;11.63;86.04;99561.66;4334879;33;34015;-75
2022/11/07 04:55:24;;;;;;;3.05;2.15;;;;;;;11.42;87.08;99567.97;4347619;33;36146;-75
2022/11/07 04:57:52;;;;;;;1.95;1.27;;;;;;;12.50;81.92;99573.59;4334523;33;35361;-75
2022/11/07 05:00:21;;;;;;;1.55;1.45;;;;;;;12.94;77.65;99576.41;4347685;33;34510;-75
2022/11/07 05:02:49;;;;;;;2.28;1.90;;;;;;;12.19;81.33;99572.31;4348181;33;33892;-75
2022/11/07 05:05:17;;;;;;;1.42;1.33;;;;;;;12.30;81.26;99576.53;4348553;33;35056;-75
2022/11/07 05:07:46;;;;;;;2.50;2.35;;;;;;;12.14;81.74;99573.25;4348705;33;34483;-75
2022/11/07 05:10:22;;;;;;;1.98;1.80;;;;;;;11.84;82.80;99581.41;4348687;33;33633;-75
2022/11/07 05:12:51;;;;;;;0.80;0.80;;;;;;;11.47;84.72;99580.13;4348631;33;33981;-75
2022/11/07 05:15:20;;;;;;;1.12;1.12;;;;;;;11.29;85.71;99588.97;4348616;33;35148;-75
2022/11/07 05:17:48;;;;;;;1.33;1.25;;;;;;;12.26;81.23;99574.81;4348322;33;35346;-75
2022/11/07 05:20:36;;;;;;;0.90;0.62;;;;;;;12.41;79.72;99575.50;4348514;33;34484;-76
2022/11/07 05:23:14;;;;;;;1.40;1.30;;;;;;;11.87;81.38;99574.41;4335231;33;34032;-76
2022/11/07 05:25:48;;;;;;;0.60;0.60;;;;;;;11.08;86.69;99590.06;4348461;33;35304;-74
2022/11/07 05:28:27;;;;;;;0.73;0.73;;;;;;;12.66;78.05;99578.59;4335463;33;34096;-75
2022/11/07 05:31:07;;;;;;;0.62;0.62;;;;;;;12.39;77.47;99585.09;4348525;33;33693;-76
2022/11/07 05:33:34;;;;;;;1.25;1.20;;;;;;;12.13;79.52;99583.72;4348394;33;34704;-75
2022/11/07 05:36:14;;;;;;;0.75;0.75;;;;;;;12.42;78.34;99582.44;4348366;33;35695;-75
2022/11/07 05:38:45;;;;;;;3.12;2.72;;;;;;;12.07;79.21;99584.66;4348306;33;34548;-74
2022/11/07 05:41:14;;;;;;;0.50;0.50;;;;;;;11.83;80.69;99596.22;4348483;33;32765;-75
2022/11/07 05:43:43;;;;;;;0.93;0.90;;;;;;;11.76;81.86;99605.00;4348238;33;33834;-75
2022/11/07 05:46:11;;;;;;;1.02;0.98;;;;;;;11.87;81.86;99613.56;4348257;33;35949;-75
2022/11/07 05:48:39;;;;;;;0.70;0.70;;;;;;;11.94;81.49;99615.25;4348417;33;35371;-76
2022/11/07 05:51:08;;;;;;;1.92;1.83;;;;;;;12.03;81.66;99613.41;4335027;33;33674;-75
2022/11/07 05:53:35;;;;;;;1.55;0.68;;;;;;;11.89;83.05;99622.22;4348256;33;33933;-75
2022/11/07 05:56:04;;;;;;;1.20;1.12;;;;;;;12.00;82.51;99623.88;4348255;33;35009;-76
2022/11/07 05:58:32;;;;;;;1.80;1.67;;;;;;;11.97;82.50;99632.63;4310946;33;33383;-76
2022/11/07 06:01:05;;;;;;;1.60;1.10;;;;;;;11.95;82.88;99632.66;4348346;33;33847;-75
2022/11/07 06:03:33;;;;;;;0.60;0.60;;;;;;;11.92;82.64;99632.69;4348148;33;33998;-75
2022/11/07 06:06:01;;;;;;;0.77;0.77;;;;;;;12.37;81.24;99641.69;4347791;33;35135;-76
2022/11/07 06:08:29;;;;;;;0.60;0.60;;;;;;;13.13;76.92;99644.97;4348042;33;34604;-75
2022/11/07 06:10:57;;;;;;;0.85;0.85;;;;;;;12.49;78.71;99644.16;4347687;33;34601;-76
2022/11/07 06:13:25;;;;;;;1.67;1.58;;;;;;;12.01;81.88;99647.38;4347989;33;33931;-75
2022/11/07 06:15:53;;;;;;;0.68;0.68;;;;;;;11.64;84.03;99652.94;4347930;33;35991;-75
2022/11/07 06:18:22;;;;;;;2.40;2.22;;;;;;;11.40;85.84;99664.50;4347949;33;35209;-75
2022/11/07 06:20:49;;;;;;;2.25;1.37;;;;;;;11.49;87.00;99664.41;4347972;33;33665;-76
2022/11/07 06:23:18;;;;;;;9.90;8.48;;;;;;;12.33;81.95;99673.09;4347732;33;34657;-76
2022/11/07 06:25:49;;;;;;;1.92;1.83;;;;;;;12.18;82.51;99670.66;4347813;33;35059;-76
2022/11/07 06:28:17;;;;;;;2.42;2.03;;;;;;;13.01;78.99;99664.31;4346685;33;34439;-76
2022/11/07 06:30:45;;;;;;;1.70;1.60;;;;;;;12.65;79.79;99674.41;4345295;33;33715;-74
2022/11/07 06:33:15;;;;;;;2.47;1.75;;;;;;;12.46;81.96;99688.63;4345220;33;34677;-76
2022/11/07 06:35:44;;;;;;;2.20;1.75;;;;;;;12.44;81.62;99699.06;4347697;33;34917;-75
2022/11/07 06:38:14;;;;;;;3.08;2.67;;;;;;;12.68;80.27;99690.03;4334541;33;35262;-75
2022/11/07 06:40:42;;;;;;;1.10;1.10;;;;;;;12.14;83.09;99695.06;4334465;33;33583;-75
2022/11/07 06:43:18;;;;;;;1.25;1.10;;;;;;;12.59;81.21;99692.78;4347480;33;34684;-79
2022/11/07 06:45:47;;;;;;;0.85;0.85;;;;;;;12.73;80.52;99699.56;4333219;33;35868;-79
2022/11/07 06:48:15;;;;;;;3.85;2.42;;;;;;;12.21;82.80;99699.34;4332781;33;34480;-75
2022/11/07 06:50:43;;;;;;;1.00;1.00;;;;;;;12.10;84.25;99703.81;4334674;33;33754;-73
2022/11/07 06:53:12;;;;;;;0.60;0.60;;;;;;;12.88;80.90;99695.00;4334824;33;34079;-78
2022/11/07 06:55:41;;;;;;;1.42;1.33;;;;;;;13.05;78.67;99701.72;4336953;33;34802;-76
2022/11/07 06:58:09;;;;;;;2.00;1.85;;;;;;;12.70;80.36;99703.94;4349516;33;35229;-78
2022/11/07 07:00:37;;;;;;;0.70;0.70;;;;;;;12.29;83.44;99700.12;4349592;33;34613;-79
2022/11/07 07:03:05;;;;;;;1.37;1.27;;;;;;;11.73;86.78;99704.16;4349354;33;34054;-75
2022/11/07 07:05:34;;;;;;;1.52;1.42;;;;;;;12.05;86.19;99710.84;4349367;33;35925;-73
2022/11/07 07:08:05;;;;;;;1.05;0.98;;;;;;;12.13;85.82;99706.41;4336176;33;35454;-75
2022/11/07 07:10:39;;;;;;;2.37;2.17;;;;;;;12.31;84.61;99714.00;4349495;33;33364;-72
2022/11/07 07:13:07;;;;;;;4.07;3.08;;;;;;;12.08;85.84;99716.03;4349717;33;33879;-79
2022/11/07 07:15:35;;;;;;;2.50;2.30;;;;;;;12.23;85.63;99721.09;4349323;33;35774;-72
2022/11/07 07:18:18;;;;;;;3.30;2.97;;;;;;;12.06;85.41;99723.88;4349401;33;34588;-76
2022/11/07 07:20:47;;;;;;;1.73;1.62;;;;;;;12.20;85.25;99723.72;4349438;33;33787;-76
2022/11/07 07:23:16;;;;;;;1.23;1.10;;;;;;;12.21;84.43;99717.63;4349211;33;34972;-78
2022/11/07 07:25:46;;;;;;;2.20;1.73;;;;;;;12.25;84.01;99723.69;4336055;33;34876;-74
2022/11/07 07:28:14;;;;;;;1.08;1.00;;;;;;;12.46;82.82;99719.97;4340073;33;35245;-76
2022/11/07 07:30:42;;;;;;;0.82;0.82;;;;;;;12.63;82.42;99720.59;4346903;33;33551;-77
2022/11/07 07:33:18;;;;;;;;;;;;;;;12.64;82.00;99724.94;4348491;33;34446;-80
2022/11/07 07:35:46;;;;;;;0.95;0.95;;;;;;;12.62;82.43;99724.09;4348509;33;35280;-73
2022/11/07 07:38:14;;;;;;;1.67;1.58;;;;;;;12.49;83.08;99722.50;4347338;33;34151;-73
2022/11/07 07:40:43;;;;;;;1.85;0.90;;;;;;;12.81;82.11;99724.72;4347777;33;34217;-74
2022/11/07 07:43:11;;;;;;;1.95;1.85;;;;;;;13.22;80.62;99727.63;4349219;33;33950;-78
2022/11/07 07:45:39;;;;;;;2.72;1.30;;;;;;;13.15;81.42;99729.47;4349126;33;34934;-78
2022/11/07 07:48:07;;;;;;;2.75;2.55;;;;;;;12.87;82.17;99729.00;4349171;33;34496;-78
2022/11/07 07:50:35;;;;;;;1.75;1.65;;;;;;;12.56;82.67;99733.75;4349232;33;33694;-77
2022/11/07 07:53:03;;;;;;;2.15;1.92;;;;;;;13.11;81.32;99732.13;4349400;33;34753;-77
2022/11/07 07:55:36;;;;;;;0.82;0.82;;;;;;;12.61;83.21;99731.94;4343793;33;35194;-77
2022/11/07 07:58:04;;;;;;;1.00;1.00;;;;;;;12.72;84.06;99732.66;4337707;33;35199;-78
2022/11/07 08:00:32;;;;;;;1.98;1.45;;;;;;;12.96;82.54;99723.62;4343914;33;33772;-78
2022/11/07 08:03:02;;;;;;;2.25;1.70;;;;;;;12.96;81.69;99726.25;4336059;33;33885;-78
2022/11/07 08:05:30;;;;;;;1.25;1.25;;;;;;;13.29;79.28;99734.47;4336432;33;35028;-77
2022/11/07 08:07:58;;;;;;;2.35;1.80;;;;;;;12.43;84.42;99728.69;4333173;33;35370;-78
2022/11/07 08:10:26;;;;;;;1.08;1.08;;;;;;;13.17;79.56;99732.06;4343780;32;33533;-72
2022/11/07 08:13:08;;;;;;;2.53;1.90;;;;;;;12.80;82.55;99727.34;4340752;33;33966;-75
2022/11/07 08:15:37;;;;;;;4.57;2.35;;;;;;;12.62;82.40;99733.69;4348900;33;34981;-76
2022/11/07 08:18:05;;;;;;;3.80;2.15;;;;;;;12.71;81.49;99729.19;4348970;33;34495;-77
2022/11/07 08:20:33;;;;;;;10.50;2.62;;;;;;;12.84;81.23;99722.03;4348901;33;33852;-76
2022/11/07 08:23:03;;;;;;;1.65;1.40;;;;;;;12.99;80.13;99718.37;4348924;33;33803;-79
2022/11/07 08:25:31;;;;;;;2.28;1.45;;;;;;;13.14;80.03;99722.50;4348878;33;35249;-78
2022/11/07 08:28:00;;;;;;;0.70;0.70;;;;;;;12.77;82.25;99722.16;4335379;33;34526;-81
2022/11/07 08:30:30;;;;;;;3.12;2.45;;;;;;;12.52;83.30;99728.56;4345407;33;34459;-77
2022/11/07 08:33:02;;;;;;;5.22;1.80;;;;;;;13.05;81.54;99726.09;4348974;33;34044;-78
2022/11/07 08:35:31;;;;;;;0.47;0.47;;;;;;;13.09;80.58;99719.06;4348902;33;36079;-77
2022/11/07 08:38:05;;;;;;;10.85;4.05;;;;;;;12.70;81.05;99711.78;4346231;32;34608;-75
2022/11/07 08:40:34;;;;;;;4.43;3.22;;;;;;;12.66;82.22;99715.31;4354139;32;33618;-73
2022/11/07 08:43:02;;;;;;;1.48;1.37;;;;;;;12.47;85.05;99719.91;4351623;32;34578;-75
2022/11/07 08:45:30;;;;;;;1.55;1.45;;;;;;;12.66;81.77;99719.69;4348469;32;34032;-79
2022/11/07 08:47:58;;;;;;;1.10;0.95;;;;;;;13.17;79.99;99718.97;4344264;33;34522;-77
2022/11/07 08:50:27;;;;;;;2.28;2.12;;;;;;;12.83;81.13;99722.06;4331724;33;33617;-78
2022/11/07 08:52:55;;;;;;;0.65;0.50;;;;;;;12.60;81.97;99728.47;4342438;33;33829;-77
2022/11/07 08:55:29;;;;;;;1.10;1.10;;;;;;;12.92;82.11;99719.34;4342192;33;35074;-79
2022/11/07 08:58:02;;;;;;;1.50;1.40;;;;;;;12.95;81.52;99727.13;4341801;33;34461;-72
2022/11/07 09:00:31;;;;;;;0.73;0.65;;;;;;;12.83;83.09;99737.75;4342483;33;34626;-78
2022/11/07 09:03:07;;;;;;;0.93;0.77;;;;;;;12.97;81.14;99729.72;4342677;33;33912;-79
2022/11/07 09:05:56;;;;;;;1.62;1.52;;;;;;;13.07;81.55;99736.53;4342361;33;35049;-79
2022/11/07 09:08:24;;;;;;;3.40;3.15;;;;;;;13.21;80.13;99738.97;4341789;33;34502;-72
2022/11/07 09:10:53;;;;;;;3.30;2.10;;;;;;;12.60;83.64;99745.88;4347766;33;34505;-72
2022/11/07 09:13:21;;;;;;;0.93;0.93;;;;;;;13.14;81.30;99739.94;4347377;33;34906;-78
2022/11/07 09:15:49;;;;;;;3.28;2.17;;;;;;;12.88;83.71;99743.78;4335897;33;35192;-79
2022/11/07 09:18:20;;;;;;;1.52;1.40;;;;;;;12.98;81.52;99747.13;4344221;33;34584;-74
2022/11/07 09:20:51;;;;;;;2.12;2.00;;;;;;;13.39;80.39;99750.91;4340807;33;32476;-78
2022/11/07 09:23:19;;;;;;;0.68;0.68;;;;;;;13.65;79.26;99758.34;4338074;33;33874;-78
2022/11/07 09:25:47;;;;;;;1.23;1.12;;;;;;;13.93;77.96;99753.50;4345349;33;35176;-78
2022/11/07 09:28:15;;;;;;;0.82;0.82;;;;;;;13.98;77.24;99754.28;4337132;33;34586;-78
2022/11/07 09:30:43;;;;;;;2.20;2.08;;;;;;;13.29;80.39;99752.78;4341458;33;34538;-79
2022/11/07 09:33:11;;;;;;;1.90;1.60;;;;;;;13.67;79.48;99753.94;4342772;33;33944;-79
2022/11/07 09:35:40;;;;;;;0.75;0.75;;;;;;;13.37;80.51;99755.31;4335817;33;35965;-79
2022/11/07 09:38:08;;;;;;;0.70;0.70;;;;;;;13.44;80.46;99757.78;4345127;33;34486;-79
2022/11/07 09:41:05;;;;;;;1.42;1.35;;;;;;;13.34;81.14;99758.84;4341284;33;34581;-73
2022/11/07 09:43:46;;;;;;;;;;;;;;;13.90;78.69;99752.69;4336684;33;34766;-73
2022/11/07 09:46:18;;;;;;;1.35;1.25;;;;;;;13.93;77.22;99757.87;4342360;33;36230;-74
2022/11/07 09:48:52;;;;;;;1.60;1.50;;;;;;;14.09;75.93;99758.47;4346267;33;35300;-73
2022/11/07 09:51:33;;;;;;;0.82;0.82;;;;;;;13.68;79.19;99760.03;4324382;33;33477;-80
2022/11/07 09:54:11;;;;;;;0.88;0.88;;;;;;;13.61;78.82;99749.69;4332421;33;33842;-73
2022/11/07 09:56:40;;;;;;;0.73;0.73;;;;;;;13.77;78.40;99750.28;4330690;33;35204;-78
2022/11/07 09:59:24;;;;;;;2.05;1.85;;;;;;;13.77;78.32;99755.53;4345912;33;34901;-78
2022/11/07 10:01:51;;;;;;;2.25;1.58;;;;;;;14.23;76.50;99749.44;4330990;33;33637;-73
2022/11/07 10:04:21;;;;;;;0.52;0.52;;;;;;;14.40;75.73;99751.75;4335960;33;33763;-78
2022/11/07 10:07:01;;;;;;;1.20;1.20;;;;;;;14.50;74.95;99751.56;4340088;33;35215;-79
2022/11/07 10:10:05;;;;;;;2.72;2.53;;;;;;;14.07;76.62;99757.63;4342089;33;34493;-79
2022/11/07 10:12:59;;;;;;;4.12;1.77;;;;;;;14.53;73.64;99749.75;4326484;33;33450;-77
2022/11/07 10:15:38;;;;;;;3.65;1.92;;;;;;;13.98;76.45;99748.19;4333076;33;34037;-80
2022/11/07 10:18:22;;;;;;;1.05;1.05;;;;;;;13.91;76.48;99749.19;4339290;33;35237;-72
2022/11/07 10:21:23;;;;;;;1.00;1.00;;;;;;;14.07;76.65;99742.78;4342393;33;35375;-75
2022/11/07 10:24:04;;;;;;;0.77;0.77;;;;;;;14.39;74.47;99738.69;4332008;33;32770;-73
2022/11/07 10:26:34;;;;;;;2.12;1.92;;;;;;;14.02;76.73;99744.63;4345018;33;33977;-72
2022/11/07 10:29:11;;;;;;;3.50;2.20;;;;;;;13.84;77.09;99735.34;4342224;33;34987;-78
2022/11/07 10:31:54;;;;;;;3.35;2.78;;;;;;;13.93;77.07;99739.56;4335004;33;34408;-78
2022/11/07 10:34:25;;;;;;;1.40;1.25;;;;;;;13.93;76.70;99739.56;4331413;33;33644;-78
2022/11/07 10:36:53;;;;;;;0.73;0.60;;;;;;;14.30;75.65;99733.63;4342053;33;33934;-79
2022/11/07 10:39:21;;;;;;;4.25;3.25;;;;;;;13.95;75.46;99733.38;4338784;33;35021;-77
2022/11/07 10:42:08;;;;;;;3.25;2.50;;;;;;;13.88;76.71;99731.78;4346516;33;34461;-72
2022/11/07 10:44:38;;;;;;;1.50;1.40;;;;;;;13.97;76.90;99733.38;4327201;33;34433;-72
2022/11/07 10:47:17;;;;;;;4.95;2.45;;;;;;;13.62;77.03;99732.22;4326731;33;33600;-72
2022/11/07 10:50:04;;;;;;;0.75;0.75;;;;;;;13.79;76.57;99722.31;4346527;33;35779;-76
2022/11/07 10:52:32;;;;;;;;;;;;;;;13.92;76.77;99716.88;4321571;33;34648;-77
2022/11/07 10:55:14;;;;;;;0.93;0.93;;;;;;;13.74;77.63;99723.31;4335121;33;33474;-77
2022/11/07 10:57:43;;;;;;;0.47;0.47;;;;;;;13.68;77.56;99718.16;4342797;33;34747;-79
2022/11/07 11:00:42;;;;;;;1.55;1.45;;;;;;;13.74;77.33;99718.94;4335128;33;35038;-80
2022/11/07 11:03:20;;;;;;;2.22;1.70;;;;;;;13.52;79.21;99707.09;4345731;33;35375;-79
2022/11/07 11:05:49;;;;;;;8.60;3.62;;;;;;;13.55;78.09;99709.66;4344472;33;33649;-77
2022/11/07 11:08:20;;;;;;;0.95;0.73;;;;;;;13.55;78.36;99712.28;4342043;33;34849;-74
2022/11/07 11:10:48;;;;;;;0.68;0.68;;;;;;;13.22;80.48;99712.78;4342403;33;35055;-73
2022/11/07 11:13:32;;;;;;;1.40;1.33;;;;;;;13.51;79.63;99700.16;4341867;33;34578;-79
2022/11/07 11:16:12;;;;;;;1.10;0.60;;;;;;;13.92;77.11;99701.16;4348527;33;33505;-79
2022/11/07 11:18:48;;;;;;;0.40;0.40;;;;;;;13.54;78.43;99694.88;4346153;33;33865;-78
2022/11/07 11:21:17;;;;;;;1.67;1.58;;;;;;;13.78;77.69;99691.84;4343288;33;35005;-75
2022/11/07 11:23:45;;;;;;;0.95;0.82;;;;;;;13.88;77.02;99695.13;4330769;33;34523;-78
2022/11/07 11:26:32;;;;;;;2.22;1.20;;;;;;;13.36;78.47;99691.69;4344220;33;33975;-79
2022/11/07 11:29:07;;;;;;;0.55;0.55;;;;;;;13.40;80.23;99701.19;4330244;33;34731;-77
2022/11/07 11:31:40;;;;;;;3.22;2.75;;;;;;;14.13;76.05;99700.75;4344908;33;35062;-78
2022/11/07 11:34:43;;;;;;;0.50;0.50;;;;;;;13.80;77.74;99697.91;4335074;33;34678;-77
2022/11/07 11:37:20;;;;;;;1.23;1.12;;;;;;;14.07;77.19;99700.03;4335279;33;34517;-75
2022/11/07 11:39:57;;;;;;;0.73;0.73;;;;;;;14.19;77.20;99694.56;4349249;33;34062;-77
2022/11/07 11:42:54;;;;;;;0.75;0.75;;;;;;;14.58;74.76;99682.41;4349334;33;35027;-73
2022/11/07 11:45:59;;;;;;;0.62;0.62;;;;;;;14.05;77.85;99686.97;4349186;33;35399;-77
2022/11/07 11:48:43;;;;;;;1.25;1.23;;;;;;;13.76;78.64;99690.97;4349235;33;33915;-73
2022/11/07 11:51:21;;;;;;;1.55;1.45;;;;;;;14.06;77.94;99693.91;4336010;33;34806;-78
2022/11/07 11:53:49;;;;;;;0.85;0.85;;;;;;;13.92;77.29;99690.69;4335828;33;35334;-75
2022/11/07 11:56:25;;;;;;;0.98;0.93;;;;;;;13.67;78.30;99685.06;4347133;33;34511;-77
2022/11/07 11:59:05;;;;;;;0.45;0.45;;;;;;;13.81;77.50;99689.13;4349131;33;33650;-78
2022/11/07 12:01:37;;;;;;;1.45;1.02;;;;;;;13.86;77.21;99690.81;4345830;33;34744;-74
2022/11/07 12:04:33;;;;;;;2.25;2.05;;;;;;;13.87;77.00;99682.94;4348393;33;34997;-79